createdAt,value
2022-08-20T00:02:14.768Z,78.18
2022-08-20T00:04:44.323Z,78.36
2022-08-20T00:07:13.499Z,78.40
2022-08-20T00:09:41.849Z,77.81
2022-08-20T00:12:11.181Z,77.69
2022-08-20T00:14:39.798Z,77.81
2022-08-20T00:17:07.729Z,77.60
2022-08-20T00:19:37.884Z,77.47
2022-08-20T00:22:05.912Z,76.91
2022-08-20T00:24:34.981Z,76.55
2022-08-20T00:27:02.943Z,77.69
2022-08-20T00:29:34.403Z,77.79
2022-08-20T00:32:02.322Z,77.24
2022-08-20T00:34:30.476Z,77.56
2022-08-20T00:36:58.428Z,77.15
2022-08-20T00:39:26.408Z,77.42
2022-08-20T00:41:54.326Z,77.58
2022-08-20T00:44:23.154Z,78.10
2022-08-20T00:46:52.291Z,79.76
2022-08-20T00:49:29.596Z,80.80
2022-08-20T00:52:26.783Z,80.75
2022-08-20T00:54:59.433Z,80.04
2022-08-20T00:58:01.324Z,80.40
2022-08-20T01:00:33.565Z,80.43
2022-08-20T01:03:02.008Z,80.36
2022-08-20T01:05:30.192Z,79.92
2022-08-20T01:08:01.295Z,79.88
2022-08-20T01:10:36.172Z,80.18
2022-08-20T01:13:11.227Z,80.20
2022-08-20T01:15:43.360Z,80.07
2022-08-20T01:18:18.486Z,79.93
2022-08-20T01:21:07.715Z,79.40
2022-08-20T01:23:41.181Z,78.87
2022-08-20T01:26:11.440Z,79.20
2022-08-20T01:28:45.389Z,79.19
2022-08-20T01:31:18.091Z,78.83
2022-08-20T01:33:48.669Z,78.74
2022-08-20T01:36:21.082Z,79.19
2022-08-20T01:38:53.133Z,78.90
2022-08-20T01:41:28.359Z,78.55
2022-08-20T01:43:58.530Z,78.00
2022-08-20T01:46:30.924Z,78.81
2022-08-20T01:49:00.802Z,78.50
2022-08-20T01:51:31.983Z,77.62
2022-08-20T01:54:00.149Z,77.80
2022-08-20T01:56:31.815Z,78.02
2022-08-20T01:59:02.404Z,78.02
2022-08-20T02:01:30.392Z,78.55
2022-08-20T02:04:02.627Z,78.88
2022-08-20T02:06:33.049Z,78.95
2022-08-20T02:09:02.805Z,78.59
2022-08-20T02:11:32.614Z,77.94
2022-08-20T02:14:01.607Z,77.39
2022-08-20T02:16:35.699Z,79.68
2022-08-20T02:19:10.110Z,79.13
2022-08-20T02:21:41.426Z,78.36
2022-08-20T02:24:09.756Z,78.66
2022-08-20T02:26:39.227Z,78.36
2022-08-20T02:29:13.166Z,77.80
2022-08-20T02:32:25.155Z,78.88
2022-08-20T02:34:34.976Z,78.92
2022-08-20T02:37:04.169Z,78.88
2022-08-20T02:39:32.322Z,79.16
2022-08-20T02:42:04.119Z,78.94
2022-08-20T02:47:01.175Z,78.11
2022-08-20T02:49:29.269Z,78.95
2022-08-20T02:51:57.538Z,78.11
2022-08-20T02:54:25.464Z,78.70
2022-08-20T02:56:53.357Z,80.40
2022-08-20T02:59:21.238Z,78.64
2022-08-20T03:01:59.653Z,77.86
2022-08-20T03:04:29.789Z,78.65
2022-08-20T03:06:59.337Z,78.60
2022-08-20T03:09:27.545Z,79.44
2022-08-20T03:11:55.453Z,78.25
2022-08-20T03:14:23.713Z,78.62
2022-08-20T03:16:52.091Z,78.82
2022-08-20T03:19:21.405Z,78.23
2022-08-20T03:21:49.794Z,77.95
2022-08-20T03:24:17.807Z,78.40
2022-08-20T03:26:45.837Z,77.67
2022-08-20T03:29:13.783Z,77.15
2022-08-20T03:31:43.786Z,77.05
2022-08-20T03:34:12.061Z,77.27
2022-08-20T03:36:40.088Z,76.18
2022-08-20T03:39:11.867Z,75.97
2022-08-20T03:41:42.370Z,76.26
2022-08-20T03:44:10.372Z,75.68
2022-08-20T03:46:39.673Z,76.65
2022-08-20T03:49:07.654Z,76.91
2022-08-20T03:51:57.611Z,76.83
2022-08-20T03:54:23.766Z,75.17
2022-08-20T03:56:55.427Z,76.72
2022-08-20T03:59:23.627Z,76.82
2022-08-20T04:01:53.559Z,76.60
2022-08-20T04:04:22.284Z,75.87
2022-08-20T04:06:53.246Z,75.51
2022-08-20T04:09:21.276Z,75.75
2022-08-20T04:11:49.349Z,75.69
2022-08-20T04:14:19.528Z,75.00
2022-08-20T04:16:48.973Z,75.68
2022-08-20T04:19:19.741Z,75.74
2022-08-20T04:21:49.071Z,76.06
2022-08-20T04:24:31.143Z,77.02
2022-08-20T04:27:03.024Z,76.29
2022-08-20T04:29:34.884Z,74.87
2022-08-20T04:32:06.844Z,74.28
2022-08-20T04:34:35.320Z,74.93
2022-08-20T04:37:04.063Z,75.43
2022-08-20T04:39:32.194Z,75.79
2022-08-20T04:42:00.154Z,76.84
2022-08-20T04:44:28.502Z,76.54
2022-08-20T04:46:56.410Z,76.54
2022-08-20T04:49:26.593Z,76.13
2022-08-20T04:51:54.972Z,75.88
2022-08-20T04:54:22.934Z,76.15
2022-08-20T04:56:51.490Z,76.12
2022-08-20T04:59:19.675Z,77.45
2022-08-20T05:01:47.545Z,77.56
2022-08-20T05:04:15.435Z,77.40
2022-08-20T05:06:43.285Z,77.75
2022-08-20T05:09:11.343Z,76.85
2022-08-20T05:11:39.387Z,77.12
2022-08-20T05:14:09.478Z,75.32
2022-08-20T05:16:39.333Z,74.86
2022-08-20T05:19:10.276Z,73.34
2022-08-20T05:21:38.901Z,71.95
2022-08-20T05:24:07.871Z,71.93
2022-08-20T05:26:36.151Z,71.81
2022-08-20T05:29:05.642Z,70.37
2022-08-20T05:31:35.057Z,70.05
2022-08-20T05:34:10.747Z,70.91
2022-08-20T05:36:49.343Z,71.06
2022-08-20T05:39:20.678Z,70.62
2022-08-20T05:41:51.390Z,70.62
2022-08-20T05:44:20.152Z,71.18
2022-08-20T05:46:49.079Z,70.39
2022-08-20T05:49:20.311Z,70.16
2022-08-20T05:51:51.132Z,69.22
2022-08-20T05:54:19.611Z,70.04
2022-08-20T05:56:47.782Z,69.29
2022-08-20T05:59:16.117Z,68.44
2022-08-20T06:01:44.215Z,67.55
2022-08-20T06:04:32.222Z,67.26
2022-08-20T06:07:06.958Z,66.00
2022-08-20T06:09:36.544Z,66.72
2022-08-20T06:12:06.762Z,66.27
2022-08-20T06:14:35.007Z,65.32
2022-08-20T06:17:15.228Z,65.17
2022-08-20T06:19:44.968Z,63.35
2022-08-20T06:22:17.674Z,63.62
2022-08-20T06:24:47.823Z,63.27
2022-08-20T06:27:16.775Z,63.71
2022-08-20T06:29:45.086Z,63.43
2022-08-20T06:32:13.496Z,61.78
2022-08-20T06:34:50.604Z,61.96
2022-08-20T06:37:23.361Z,61.05
2022-08-20T06:40:07.014Z,61.72
2022-08-20T06:42:35.402Z,60.71
2022-08-20T06:45:07.346Z,61.99
2022-08-20T06:47:35.352Z,60.72
2022-08-20T06:50:03.356Z,61.69
2022-08-20T06:52:51.642Z,61.77
2022-08-20T06:55:19.823Z,61.04
2022-08-20T06:57:48.559Z,60.90
2022-08-20T07:00:19.211Z,60.96
2022-08-20T07:02:52.960Z,61.03
2022-08-20T07:05:21.031Z,60.62
2022-08-20T07:07:51.107Z,59.87
2022-08-20T07:10:20.516Z,62.40
2022-08-20T07:12:50.705Z,60.52
2022-08-20T07:15:22.091Z,59.81
2022-08-20T07:18:00.723Z,59.73
2022-08-20T07:20:30.157Z,59.92
2022-08-20T07:22:58.511Z,60.71
2022-08-20T07:25:27.510Z,60.21
2022-08-20T07:28:02.009Z,60.17
2022-08-20T07:30:56.446Z,60.28
2022-08-20T07:33:30.418Z,60.86
2022-08-20T07:36:01.097Z,59.83
2022-08-20T07:38:31.022Z,59.57
2022-08-20T07:41:08.495Z,59.15
2022-08-20T07:43:36.951Z,58.82
2022-08-20T07:46:09.467Z,58.52
2022-08-20T07:48:40.330Z,58.05
2022-08-20T07:51:09.761Z,58.14
2022-08-20T07:53:40.023Z,57.57
2022-08-20T07:56:12.814Z,56.42
2022-08-20T07:58:50.344Z,56.40
2022-08-20T08:01:22.378Z,57.74
2022-08-20T08:03:50.878Z,56.53
2022-08-20T08:06:29.486Z,55.50
2022-08-20T08:09:04.685Z,55.68
2022-08-20T08:11:35.143Z,55.70
2022-08-20T08:14:06.545Z,55.95
2022-08-20T08:16:35.906Z,55.47
2022-08-20T08:19:06.819Z,54.81
2022-08-20T08:21:35.097Z,55.31
2022-08-20T08:24:03.423Z,55.22
2022-08-20T08:26:31.559Z,55.57
2022-08-20T08:29:02.888Z,54.60
2022-08-20T08:31:30.817Z,53.55
2022-08-20T08:33:58.936Z,53.30
2022-08-20T08:36:27.601Z,52.49
2022-08-20T08:38:56.776Z,53.60
2022-08-20T08:41:38.061Z,53.64
2022-08-20T08:44:21.857Z,53.02
2022-08-20T08:46:56.461Z,53.82
2022-08-20T08:49:35.172Z,54.06
2022-08-20T08:52:16.218Z,54.34
2022-08-20T08:54:50.792Z,53.68
2022-08-20T08:57:19.573Z,53.21
2022-08-20T09:00:04.688Z,51.93
2022-08-20T09:02:35.567Z,50.41
2022-08-20T09:05:13.555Z,51.26
2022-08-20T09:07:45.882Z,50.74
2022-08-20T09:10:13.866Z,51.20
2022-08-20T09:12:47.120Z,50.96
2022-08-20T09:15:16.818Z,50.58
2022-08-20T09:17:44.685Z,50.52
2022-08-20T09:20:12.732Z,49.62
2022-08-20T09:22:41.308Z,47.31
2022-08-20T09:25:09.609Z,47.61
2022-08-20T09:27:37.776Z,47.15
2022-08-20T09:30:11.832Z,47.51
2022-08-20T09:32:39.852Z,48.93
2022-08-20T09:35:09.561Z,50.02
2022-08-20T09:37:38.126Z,50.83
2022-08-20T09:40:08.802Z,49.49
2022-08-20T09:42:41.380Z,49.40
2022-08-20T09:45:11.689Z,49.10
2022-08-20T09:47:48.730Z,49.35
2022-08-20T09:50:29.733Z,50.08
2022-08-20T09:53:00.292Z,50.36
2022-08-20T09:55:38.510Z,47.42
2022-08-20T09:58:12.916Z,45.37
2022-08-20T10:00:41.505Z,44.08
2022-08-20T10:03:09.632Z,44.85
2022-08-20T10:05:37.631Z,45.62
2022-08-20T10:08:07.717Z,44.85
2022-08-20T10:10:36.586Z,44.59
2022-08-20T10:13:04.971Z,44.18
2022-08-20T10:15:32.958Z,44.86
2022-08-20T10:18:07.679Z,44.57
2022-08-20T10:20:36.337Z,42.88
2022-08-20T10:23:05.263Z,44.43
2022-08-20T10:25:33.806Z,43.11
2022-08-20T10:28:03.618Z,40.68
2022-08-20T10:30:31.641Z,40.12
2022-08-20T10:33:04.045Z,41.51
2022-08-20T10:35:34.413Z,40.68
2022-08-20T10:38:02.513Z,38.24
2022-08-20T10:40:30.490Z,39.26
2022-08-20T10:42:58.371Z,39.13
2022-08-20T10:45:26.253Z,40.06
2022-08-20T10:47:54.823Z,39.45
2022-08-20T10:50:22.844Z,37.62
2022-08-20T10:52:50.689Z,38.03
2022-08-20T10:55:19.343Z,39.72
2022-08-20T10:57:47.369Z,38.05
2022-08-20T11:00:17.523Z,36.79
2022-08-20T11:02:57.747Z,37.11
2022-08-20T11:05:25.843Z,36.19
2022-08-20T11:07:56.725Z,37.25
2022-08-20T11:10:30.035Z,38.12
2022-08-20T11:13:03.072Z,38.18
2022-08-20T11:15:37.154Z,37.40
2022-08-20T11:18:06.068Z,38.13
2022-08-20T11:20:46.046Z,38.44
2022-08-20T11:23:18.673Z,38.97
2022-08-20T11:25:48.214Z,37.75
2022-08-20T11:28:16.752Z,38.63
2022-08-20T11:31:01.662Z,38.74
2022-08-20T11:33:29.950Z,37.80
2022-08-20T11:35:58.085Z,38.08
2022-08-20T11:38:26.595Z,38.26
2022-08-20T11:40:55.112Z,36.87
2022-08-20T11:43:23.489Z,37.87
2022-08-20T11:45:56.070Z,38.39
2022-08-20T11:48:24.363Z,37.55
2022-08-20T11:50:52.554Z,37.31
2022-08-20T11:53:20.628Z,37.69
2022-08-20T11:55:50.796Z,36.84
2022-08-20T11:58:19.286Z,38.83
2022-08-20T12:00:47.467Z,36.93
2022-08-20T12:03:16.138Z,39.47
2022-08-20T12:05:45.725Z,37.94
2022-08-20T12:08:27.410Z,38.89
2022-08-20T12:10:59.108Z,37.93
2022-08-20T12:13:47.469Z,40.20
2022-08-20T12:16:21.145Z,39.14
2022-08-20T12:18:49.811Z,39.23
2022-08-20T12:21:17.974Z,39.14
2022-08-20T12:23:46.068Z,38.87
2022-08-20T12:26:14.596Z,39.17
2022-08-20T12:28:42.845Z,37.70
2022-08-20T12:31:11.292Z,37.63
2022-08-20T12:33:39.306Z,36.06
2022-08-20T12:36:07.827Z,36.71
2022-08-20T12:38:36.412Z,35.76
2022-08-20T12:44:32.014Z,30.88
2022-08-20T12:47:21.550Z,34.92
2022-08-20T12:49:55.051Z,34.70
2022-08-20T12:52:24.703Z,34.62
2022-08-20T12:54:53.267Z,32.48
2022-08-20T12:57:30.348Z,33.24
2022-08-20T13:00:08.203Z,34.17
2022-08-20T13:02:38.850Z,32.88
2022-08-20T13:05:08.416Z,33.30
2022-08-20T13:07:36.659Z,33.37
2022-08-20T13:10:07.163Z,33.88
2022-08-20T13:12:36.593Z,33.62
2022-08-20T13:15:05.102Z,33.33
2022-08-20T13:17:38.597Z,34.17
2022-08-20T13:20:10.149Z,34.16
2022-08-20T13:22:38.329Z,32.37
2022-08-20T13:25:07.239Z,32.45
2022-08-20T13:27:38.816Z,31.05
2022-08-20T13:30:08.684Z,32.51
2022-08-20T13:32:37.169Z,31.47
2022-08-20T13:35:06.005Z,33.54
2022-08-20T13:37:33.961Z,32.88
2022-08-20T13:40:02.766Z,30.71
2022-08-20T13:42:31.323Z,30.84
2022-08-20T13:44:59.230Z,30.66
2022-08-20T13:47:30.309Z,33.01
2022-08-20T13:50:08.591Z,33.53
2022-08-20T13:52:39.868Z,35.19
2022-08-20T13:55:13.317Z,32.31
2022-08-20T13:57:44.759Z,33.32
2022-08-20T14:00:17.222Z,32.48
2022-08-20T14:02:45.269Z,32.21
2022-08-20T14:05:16.115Z,31.67
2022-08-20T14:07:47.979Z,34.10
2022-08-20T14:10:24.296Z,33.20
2022-08-20T14:12:52.496Z,32.01
2022-08-20T14:15:20.987Z,30.59
2022-08-20T14:17:54.821Z,30.67
2022-08-20T14:20:29.292Z,31.47
2022-08-20T14:23:01.309Z,32.74
2022-08-20T14:25:31.528Z,33.03
2022-08-20T14:28:08.680Z,32.83
2022-08-20T14:30:36.590Z,31.44
2022-08-20T14:33:04.845Z,31.68
2022-08-20T14:35:33.029Z,31.42
2022-08-20T14:38:02.651Z,31.04
2022-08-20T14:40:34.280Z,29.29
2022-08-20T14:43:02.466Z,30.77
2022-08-20T14:45:30.478Z,31.35
2022-08-20T14:47:58.815Z,30.76
2022-08-20T14:50:32.830Z,29.73
2022-08-20T14:53:02.007Z,30.32
2022-08-20T14:55:37.771Z,31.31
2022-08-20T14:58:13.445Z,30.74
2022-08-20T15:00:42.520Z,30.76
2022-08-20T15:03:11.151Z,30.23
2022-08-20T15:05:39.271Z,30.36
2022-08-20T15:08:10.819Z,31.50
2022-08-20T15:10:39.929Z,30.96
2022-08-20T15:13:08.715Z,31.87
2022-08-20T15:15:37.497Z,30.50
2022-08-20T15:18:05.718Z,31.23
2022-08-20T15:20:36.535Z,32.12
2022-08-20T15:23:05.315Z,29.52
2022-08-20T15:25:36.591Z,32.01
2022-08-20T15:28:10.170Z,31.22
2022-08-20T15:30:41.181Z,30.54
2022-08-20T15:33:10.512Z,29.30
2022-08-20T15:35:39.366Z,31.71
2022-08-20T15:38:07.500Z,30.97
2022-08-20T15:40:35.743Z,33.33
2022-08-20T15:43:05.402Z,31.83
2022-08-20T15:45:34.823Z,31.10
2022-08-20T15:48:48.067Z,32.40
2022-08-20T15:51:52.987Z,29.02
2022-08-20T15:54:25.346Z,31.95
2022-08-20T15:57:03.546Z,30.95
2022-08-20T15:59:58.936Z,32.86
2022-08-20T16:02:42.725Z,32.62
2022-08-20T16:05:39.043Z,33.76
2022-08-20T16:08:25.520Z,31.96
2022-08-20T16:11:21.282Z,33.59
2022-08-20T16:13:52.277Z,33.37
2022-08-20T16:16:37.625Z,33.02
2022-08-20T16:19:07.766Z,33.57
2022-08-20T16:21:40.333Z,33.12
2022-08-20T16:24:13.744Z,33.74
2022-08-20T16:27:01.612Z,34.55
2022-08-20T16:29:48.585Z,34.41
2022-08-20T16:32:22.610Z,35.41
2022-08-20T16:35:00.979Z,33.64
2022-08-20T16:38:04.837Z,33.72
2022-08-20T16:40:39.201Z,33.58
2022-08-20T16:43:10.967Z,34.00
2022-08-20T16:45:50.914Z,32.81
2022-08-20T16:48:20.415Z,33.66
2022-08-20T16:50:58.348Z,33.82
2022-08-20T16:53:27.712Z,34.52
2022-08-20T16:55:56.700Z,34.89
2022-08-20T16:58:25.331Z,34.03
2022-08-20T17:01:14.501Z,34.67
2022-08-20T17:03:50.432Z,35.66
2022-08-20T17:06:40.094Z,36.61
2022-08-20T17:11:11.425Z,35.80
2022-08-20T17:13:43.111Z,36.90
2022-08-20T17:16:14.162Z,35.37
2022-08-20T17:18:45.259Z,34.60
2022-08-20T17:21:26.314Z,35.55
2022-08-20T17:23:58.285Z,36.02
2022-08-20T17:26:28.743Z,33.63
2022-08-20T17:28:59.933Z,33.80
2022-08-20T17:31:38.756Z,34.60
2022-08-20T17:34:20.957Z,34.07
2022-08-20T17:37:10.200Z,35.44
2022-08-20T17:39:47.466Z,35.47
2022-08-20T17:42:21.080Z,35.35
2022-08-20T17:44:55.076Z,35.13
2022-08-20T17:47:31.324Z,37.75
2022-08-20T17:50:21.432Z,36.92
2022-08-20T17:52:53.542Z,37.99
2022-08-20T17:55:21.806Z,39.38
2022-08-20T17:57:56.014Z,35.32
2022-08-20T18:00:26.925Z,39.71
2022-08-20T18:03:02.083Z,40.57
2022-08-20T18:05:34.848Z,39.51
2022-08-20T18:08:12.089Z,41.02
2022-08-20T18:11:02.619Z,40.84
2022-08-20T18:13:49.727Z,40.75
2022-08-20T18:16:32.128Z,38.08
2022-08-20T18:19:13.595Z,38.97
2022-08-20T18:22:10.209Z,38.84
2022-08-20T18:24:59.156Z,40.94
2022-08-20T18:27:33.745Z,41.59
2022-08-20T18:30:02.976Z,40.76
2022-08-20T18:32:35.205Z,41.52
2022-08-20T18:35:14.592Z,40.84
2022-08-20T18:37:43.348Z,39.58
2022-08-20T18:40:19.649Z,40.66
2022-08-20T18:42:48.198Z,41.22
2022-08-20T18:45:29.381Z,41.09
2022-08-20T18:47:57.308Z,42.79
2022-08-20T18:50:40.222Z,42.31
2022-08-20T18:53:11.163Z,41.85
2022-08-20T18:56:01.801Z,41.85
2022-08-20T18:58:31.249Z,43.85
2022-08-20T19:01:02.356Z,43.27
2022-08-20T19:03:31.943Z,43.76
2022-08-20T19:06:08.265Z,42.58
2022-08-20T19:08:53.820Z,43.30
2022-08-20T19:11:40.943Z,45.05
2022-08-20T19:14:33.087Z,44.88
2022-08-20T19:17:08.986Z,46.54
2022-08-20T19:19:37.817Z,45.54
2022-08-20T19:22:06.059Z,45.92
2022-08-20T19:24:36.688Z,45.27
2022-08-20T19:27:08.824Z,45.33
2022-08-20T19:29:49.365Z,45.94
2022-08-20T19:32:21.553Z,45.95
2022-08-20T19:34:58.597Z,45.98
2022-08-20T19:37:39.991Z,46.79
2022-08-20T19:40:28.208Z,47.28
2022-08-20T19:42:59.750Z,47.77
2022-08-20T19:45:27.839Z,48.94
2022-08-20T19:48:27.167Z,49.58
2022-08-20T19:50:58.278Z,49.22
2022-08-20T19:53:31.109Z,50.22
2022-08-20T19:56:01.939Z,49.92
2022-08-20T19:58:31.841Z,50.24
2022-08-20T20:01:02.596Z,49.03
2022-08-20T20:03:37.836Z,49.22
2022-08-20T20:06:16.098Z,48.62
2022-08-20T20:08:54.800Z,48.79
2022-08-20T20:11:31.981Z,49.39
2022-08-20T20:14:09.228Z,49.28
2022-08-20T20:16:38.285Z,48.59
2022-08-20T20:19:27.551Z,49.61
2022-08-20T20:22:18.679Z,49.63
2022-08-20T20:25:06.822Z,49.89
2022-08-20T20:27:36.744Z,50.25
2022-08-20T20:30:12.577Z,50.78
2022-08-20T20:32:45.265Z,50.85
2022-08-20T20:35:27.291Z,52.33
2022-08-20T20:38:02.311Z,51.21
2022-08-20T20:40:43.706Z,50.83
2022-08-20T20:43:22.219Z,50.81
2022-08-20T20:46:15.788Z,51.88
2022-08-20T20:48:48.544Z,51.78
2022-08-20T20:51:22.918Z,51.04
2022-08-20T20:53:54.845Z,52.00
2022-08-20T20:56:29.848Z,52.88
2022-08-20T20:59:00.292Z,52.95
2022-08-20T21:01:48.341Z,54.06
2022-08-20T21:04:22.292Z,52.94
2022-08-20T21:06:52.894Z,53.77
2022-08-20T21:09:22.397Z,53.71
2022-08-20T21:11:53.493Z,52.51
2022-08-20T21:14:21.431Z,52.14
2022-08-20T21:16:51.387Z,52.09
2022-08-20T21:19:19.509Z,52.64
2022-08-20T21:21:47.430Z,51.70
2022-08-20T21:24:15.499Z,51.60
2022-08-20T21:26:43.783Z,52.36
2022-08-20T21:29:15.585Z,51.92
2022-08-20T21:31:45.194Z,52.19
2022-08-20T21:34:16.022Z,52.22
2022-08-20T21:36:44.141Z,52.66
2022-08-20T21:39:12.582Z,52.31
2022-08-20T21:41:42.873Z,53.51
2022-08-20T21:44:21.225Z,55.16
2022-08-20T21:46:50.694Z,56.61
2022-08-20T21:49:22.538Z,55.70
2022-08-20T21:51:51.930Z,54.47
2022-08-20T21:54:20.385Z,54.80
2022-08-20T21:56:52.173Z,52.17
2022-08-20T21:59:21.556Z,51.84
2022-08-20T22:01:49.843Z,52.13
2022-08-20T22:04:17.862Z,52.17
2022-08-20T22:06:46.318Z,51.09
2022-08-20T22:09:18.085Z,50.95
2022-08-20T22:11:54.646Z,53.65
2022-08-20T22:14:23.811Z,49.65
2022-08-20T22:16:51.924Z,49.61
2022-08-20T22:19:19.880Z,49.61
2022-08-20T22:21:49.625Z,49.34
2022-08-20T22:24:17.549Z,50.37
2022-08-20T22:26:50.727Z,50.14
2022-08-20T22:29:18.656Z,52.53
2022-08-20T22:31:46.788Z,54.03
2022-08-20T22:34:17.522Z,54.07
2022-08-20T22:36:45.782Z,54.47
2022-08-20T22:39:14.963Z,54.23
2022-08-20T22:41:42.886Z,55.84
2022-08-20T22:44:10.954Z,56.80
2022-08-20T22:46:44.987Z,55.44
2022-08-20T22:49:18.865Z,55.36
2022-08-20T22:51:46.900Z,54.06
2022-08-20T22:54:19.562Z,54.37
2022-08-20T22:56:47.675Z,53.88
2022-08-20T22:59:16.346Z,53.94
2022-08-20T23:01:45.449Z,55.41
2022-08-20T23:04:19.685Z,55.06
2022-08-20T23:06:47.736Z,55.71
2022-08-20T23:09:21.063Z,56.89
2022-08-20T23:11:50.447Z,56.20
2022-08-20T23:14:18.858Z,56.88
2022-08-20T23:16:56.716Z,58.51
2022-08-20T23:19:25.685Z,58.00
2022-08-20T23:21:53.698Z,57.95
2022-08-20T23:24:25.008Z,58.08
2022-08-20T23:26:53.583Z,58.32
2022-08-20T23:29:25.739Z,59.96
2022-08-20T23:31:56.033Z,59.67
2022-08-20T23:34:25.712Z,59.17
2022-08-20T23:36:55.254Z,59.06
2022-08-20T23:39:23.943Z,59.19
2022-08-20T23:41:52.047Z,59.57
2022-08-20T23:44:26.630Z,59.78
2022-08-20T23:46:57.297Z,59.78
2022-08-20T23:49:25.886Z,60.19
2022-08-20T23:51:53.845Z,60.70
2022-08-20T23:54:22.105Z,61.53
2022-08-20T23:56:50.227Z,60.88
2022-08-20T23:59:18.305Z,61.33
